Ruby Valley, Nevada
Current Conditions -  °F | °C
As of 6:56 PM on Wednesday 26 Nov 2014 (Local Time) from KEKO Reporting Station
Clear Clear  
Wind Chill: 37°   Ceiling: Unl
Heat Index: 37°   Visibility: 10mi
Dew Point: 30°   Wind: 0mph
Humidity: 76%   Direction: NA
Pressure: 30.34"   Gusts: NA
Location:  40.5°N, 115.35°W
Report Text: KEKO 270256Z AUTO 00000KT 10SM CLR 03/M01 A3034 RMK AO2 SLP298 T00281011 50000
Loading
Personal Weather Stations






























Interactive Weather Map New forecast layout! Learn more

10-Day Weather Forecast

Advertisements
Track Severe Weather on mobile